Time;durP1;ratioP1;P1;durP2;ratioP2;P2;SDS_P1;SDS_P2;PMS_P1;PMS_P2;Temp;Humidity;BMP_temperature;BMP_pressure;BME280_temperature;BME280_humidity;BME280_pressure;Samples;Min_cycle;Max_cycle;Signal;HPM_P1;HPM_P2
2024/03/12 00:00:41;;;;;;;1.30;1.20;;;17.70;66.30;;;;;;4970313;28;20109;-79
2024/03/12 00:03:09;;;;;;;1.13;1.08;;;17.70;66.30;;;;;;4985933;28;20118;-79
2024/03/12 00:05:35;;;;;;;1.27;1.17;;;17.70;66.20;;;;;;4987690;28;20054;-79
2024/03/12 00:08:01;;;;;;;1.00;1.00;;;17.70;66.30;;;;;;4986282;28;20093;-81
2024/03/12 00:10:27;;;;;;;1.10;1.10;;;17.70;66.20;;;;;;4999729;28;20046;-80
2024/03/12 00:12:53;;;;;;;1.50;1.40;;;17.70;66.20;;;;;;4970176;28;20088;-81
2024/03/12 00:15:23;;;;;;;1.10;1.10;;;17.70;66.20;;;;;;4988670;28;20070;-81
2024/03/12 00:17:49;;;;;;;1.45;1.35;;;17.70;66.20;;;;;;4997365;28;20034;-81
2024/03/12 00:20:17;;;;;;;1.17;1.17;;;17.70;66.20;;;;;;4951305;28;20093;-80
2024/03/12 00:22:47;;;;;;;1.15;1.13;;;17.70;66.20;;;;;;4985923;28;20147;-81
2024/03/12 00:25:16;;;;;;;1.20;1.20;;;17.70;66.20;;;;;;4984979;28;20026;-80
2024/03/12 00:27:42;;;;;;;0.80;0.80;;;17.70;66.20;;;;;;5001565;28;20065;-80
2024/03/12 00:30:11;;;;;;;1.20;1.20;;;17.70;66.20;;;;;;4953413;28;20038;-80
2024/03/12 00:32:43;;;;;;;0.82;0.82;;;17.60;66.20;;;;;;4986065;28;20515;-80
2024/03/12 00:35:10;;;;;;;0.77;0.77;;;17.70;66.20;;;;;;4986101;28;20116;-81
2024/03/12 00:37:39;;;;;;;1.27;1.27;;;17.70;66.30;;;;;;5002423;28;20408;-81
2024/03/12 00:40:11;;;;;;;1.05;1.05;;;17.70;66.20;;;;;;5001998;28;20045;-80
2024/03/12 00:42:39;;;;;;;0.90;0.90;;;17.70;66.10;;;;;;4983711;28;20404;-80
2024/03/12 00:45:07;;;;;;;1.30;1.20;;;17.60;66.10;;;;;;4969490;28;20039;-80
2024/03/12 00:47:33;;;;;;;1.30;1.20;;;17.60;66.10;;;;;;4987775;28;20045;-79
2024/03/12 00:50:00;;;;;;;1.27;1.27;;;17.60;66.00;;;;;;4968908;28;20165;-79
2024/03/12 00:52:26;;;;;;;1.40;1.30;;;17.60;66.10;;;;;;4987270;28;20170;-79
2024/03/12 00:54:51;;;;;;;1.10;1.10;;;17.60;66.10;;;;;;4985083;28;20515;-79
2024/03/12 00:57:17;;;;;;;0.98;0.98;;;17.60;66.10;;;;;;4967693;28;20114;-78
2024/03/12 00:59:43;;;;;;;1.08;1.08;;;17.60;66.00;;;;;;4969896;28;20412;-79
2024/03/12 01:02:11;;;;;;;1.25;1.25;;;17.60;66.20;;;;;;4953062;28;20061;-80
2024/03/12 01:04:40;;;;;;;1.20;1.10;;;17.60;66.10;;;;;;4971321;28;20209;-81
2024/03/12 01:07:10;;;;;;;1.13;1.13;;;17.60;66.10;;;;;;4969404;28;20511;-80
2024/03/12 01:09:39;;;;;;;1.05;1.05;;;17.60;66.10;;;;;;4952874;28;20041;-80
2024/03/12 01:12:11;;;;;;;1.02;1.02;;;17.60;66.10;;;;;;4969572;28;20054;-80
2024/03/12 01:14:37;;;;;;;0.90;0.90;;;17.60;66.00;;;;;;4985305;28;20040;-79
2024/03/12 01:17:08;;;;;;;1.27;1.20;;;17.60;66.00;;;;;;4985240;28;20047;-79
2024/03/12 01:19:35;;;;;;;0.88;0.88;;;17.60;66.10;;;;;;4984714;28;20079;-79
2024/03/12 01:22:01;;;;;;;1.27;1.20;;;17.60;65.90;;;;;;4984402;28;20034;-80
2024/03/12 01:24:27;;;;;;;1.17;0.95;;;17.60;66.10;;;;;;4986277;28;20034;-80
2024/03/12 01:26:53;;;;;;;1.00;1.00;;;17.60;66.80;;;;;;4985356;28;20057;-80
2024/03/12 01:29:19;;;;;;;1.02;1.02;;;17.60;66.00;;;;;;4986529;28;20522;-79
2024/03/12 01:31:44;;;;;;;0.90;0.90;;;17.50;65.90;;;;;;4985579;28;20054;-79
2024/03/12 01:34:10;;;;;;;2.17;0.95;;;17.50;66.00;;;;;;4988339;28;20053;-80
2024/03/12 01:36:36;;;;;;;0.98;0.98;;;17.50;66.10;;;;;;4990822;28;20423;-79
2024/03/12 01:39:08;;;;;;;1.15;1.05;;;17.60;66.10;;;;;;5006242;28;20121;-80
2024/03/12 01:41:34;;;;;;;1.05;1.05;;;17.50;66.00;;;;;;4984400;28;20039;-80
2024/03/12 01:44:02;;;;;;;1.10;1.00;;;17.50;66.00;;;;;;5002560;28;20047;-79
2024/03/12 01:46:30;;;;;;;1.00;1.00;;;17.50;65.90;;;;;;4989673;28;20042;-79
2024/03/12 01:48:58;;;;;;;0.80;0.80;;;17.50;65.90;;;;;;4988555;28;20416;-79
2024/03/12 01:51:24;;;;;;;0.90;0.88;;;17.50;65.90;;;;;;4987351;28;20038;-79
2024/03/12 01:53:50;;;;;;;0.90;0.90;;;17.50;66.00;;;;;;4989425;28;20330;-79
2024/03/12 01:56:17;;;;;;;1.00;1.00;;;17.50;66.00;;;;;;4990655;28;20035;-79
2024/03/12 01:58:44;;;;;;;1.10;1.00;;;17.50;66.00;;;;;;4984325;28;21708;-79
2024/03/12 02:01:09;;;;;;;1.10;1.10;;;17.50;66.10;;;;;;4969127;28;20427;-79
2024/03/12 02:03:35;;;;;;;0.93;0.93;;;17.50;65.90;;;;;;4988594;28;20503;-80
2024/03/12 02:06:01;;;;;;;1.20;1.20;;;17.50;66.00;;;;;;4984516;28;20181;-79
2024/03/12 02:08:26;;;;;;;0.98;0.93;;;17.50;66.10;;;;;;4988959;28;20037;-80
2024/03/12 02:10:52;;;;;;;0.75;0.75;;;17.50;66.00;;;;;;4955011;28;20451;-80
2024/03/12 02:13:18;;;;;;;1.13;1.13;;;17.50;66.10;;;;;;4972728;28;20041;-80
2024/03/12 02:15:43;;;;;;;1.13;1.13;;;17.50;66.20;;;;;;4987080;28;20042;-80
2024/03/12 02:18:09;;;;;;;1.17;1.17;;;17.50;66.10;;;;;;5003694;28;20058;-80
2024/03/12 02:20:35;;;;;;;1.00;1.00;;;17.50;66.10;;;;;;4989757;28;20033;-80
2024/03/12 02:23:01;;;;;;;1.08;1.08;;;17.50;66.00;;;;;;4988611;28;20404;-80
2024/03/12 02:25:26;;;;;;;0.95;0.95;;;17.50;66.10;;;;;;4989470;28;20031;-80
2024/03/12 02:27:52;;;;;;;1.35;1.30;;;17.50;66.10;;;;;;4987199;28;20042;-80
2024/03/12 02:30:18;;;;;;;1.00;1.00;;;17.50;66.00;;;;;;4988871;28;20146;-81
2024/03/12 02:32:46;;;;;;;1.10;1.00;;;17.50;66.20;;;;;;4985161;28;20050;-80
2024/03/12 02:35:13;;;;;;;1.17;1.10;;;17.40;66.00;;;;;;4988851;28;20046;-81
2024/03/12 02:37:41;;;;;;;1.00;1.00;;;17.50;66.00;;;;;;4969927;28;20184;-81
2024/03/12 02:40:14;;;;;;;1.00;1.00;;;17.40;66.10;;;;;;5000413;28;20542;-80
2024/03/12 02:42:41;;;;;;;1.00;0.98;;;17.40;66.00;;;;;;4985190;28;20057;-81
2024/03/12 02:45:06;;;;;;;1.13;1.00;;;17.40;66.10;;;;;;5000791;28;20140;-81
2024/03/12 02:47:32;;;;;;;1.00;1.00;;;17.40;66.10;;;;;;4985543;28;20089;-81
2024/03/12 02:49:58;;;;;;;0.82;0.82;;;17.40;66.00;;;;;;4987054;28;20038;-81
2024/03/12 02:52:26;;;;;;;0.93;0.93;;;17.40;66.10;;;;;;4986235;28;20096;-81
2024/03/12 02:54:52;;;;;;;0.95;0.95;;;17.40;66.00;;;;;;4986370;28;20047;-82
2024/03/12 02:57:21;;;;;;;0.90;0.90;;;17.40;66.00;;;;;;4989846;28;20047;-82
2024/03/12 02:59:48;;;;;;;1.08;1.08;;;17.40;66.00;;;;;;4991542;28;20050;-82
2024/03/12 03:02:13;;;;;;;0.90;0.90;;;17.40;66.10;;;;;;4989265;28;20034;-82
2024/03/12 03:04:40;;;;;;;0.90;0.90;;;17.40;66.10;;;;;;4970980;28;20096;-81
2024/03/12 03:07:06;;;;;;;1.05;1.00;;;17.40;66.10;;;;;;4971007;28;20031;-82
2024/03/12 03:09:31;;;;;;;1.00;1.00;;;17.40;66.00;;;;;;4989257;28;20034;-81
2024/03/12 03:11:58;;;;;;;0.93;0.93;;;17.40;66.00;;;;;;4989138;28;20055;-81
2024/03/12 03:14:23;;;;;;;1.23;1.00;;;17.40;66.10;;;;;;4971696;28;20527;-78
2024/03/12 03:16:49;;;;;;;1.25;1.20;;;17.40;66.10;;;;;;4990085;28;20053;-79
2024/03/12 03:19:15;;;;;;;0.90;0.90;;;17.40;66.10;;;;;;4986592;28;20546;-81
2024/03/12 03:21:40;;;;;;;1.65;1.02;;;17.40;66.10;;;;;;4988251;28;20038;-81
2024/03/12 03:24:06;;;;;;;1.02;1.00;;;17.40;66.10;;;;;;4988331;28;20034;-80
2024/03/12 03:26:31;;;;;;;1.15;1.05;;;17.40;66.10;;;;;;5007491;28;20454;-81
2024/03/12 03:28:57;;;;;;;1.00;1.00;;;17.40;66.00;;;;;;4988225;28;20054;-81
2024/03/12 03:31:24;;;;;;;0.93;0.93;;;17.40;66.10;;;;;;4969800;28;20396;-81
2024/03/12 03:33:50;;;;;;;0.90;0.90;;;17.40;66.10;;;;;;4953674;28;20081;-81
2024/03/12 03:36:16;;;;;;;0.93;0.93;;;17.40;66.10;;;;;;5005986;28;20535;-80
2024/03/12 03:38:42;;;;;;;1.08;1.00;;;17.40;66.10;;;;;;4988556;28;20054;-81
2024/03/12 03:41:09;;;;;;;1.10;1.00;;;17.30;66.10;;;;;;5002513;28;20197;-80
2024/03/12 03:43:35;;;;;;;0.98;0.98;;;17.40;66.00;;;;;;4983745;28;20081;-81
2024/03/12 03:46:00;;;;;;;1.50;0.90;;;17.30;66.10;;;;;;4986690;28;20120;-80
2024/03/12 03:48:26;;;;;;;1.00;1.00;;;17.30;66.00;;;;;;4970311;28;20525;-79
2024/03/12 03:50:52;;;;;;;1.63;0.93;;;17.30;65.90;;;;;;4988371;28;20045;-79
2024/03/12 03:53:17;;;;;;;1.38;1.27;;;17.30;66.00;;;;;;4986903;28;20096;-80
2024/03/12 03:55:43;;;;;;;1.20;1.10;;;17.30;66.10;;;;;;4984119;28;20064;-82
2024/03/12 03:58:09;;;;;;;1.20;1.10;;;17.30;66.00;;;;;;4990927;28;20053;-82
2024/03/12 04:00:36;;;;;;;1.02;1.02;;;17.40;66.10;;;;;;4987272;28;20050;-81
2024/03/12 04:03:02;;;;;;;0.90;0.90;;;17.40;66.20;;;;;;4987577;28;20042;-82
2024/03/12 04:05:28;;;;;;;0.70;0.70;;;17.30;66.20;;;;;;4986700;28;20050;-79
2024/03/12 04:07:54;;;;;;;0.90;0.90;;;17.30;66.10;;;;;;4986807;28;20045;-80
2024/03/12 04:10:22;;;;;;;0.77;0.77;;;17.30;66.10;;;;;;4983660;28;20042;-80
2024/03/12 04:12:48;;;;;;;1.13;1.13;;;17.30;66.10;;;;;;5001859;28;20286;-81
2024/03/12 04:15:14;;;;;;;0.60;0.60;;;17.30;66.10;;;;;;4966949;28;20050;-81
2024/03/12 04:17:42;;;;;;;1.00;1.00;;;17.30;66.10;;;;;;4986309;28;20515;-81
2024/03/12 04:20:10;;;;;;;0.90;0.90;;;17.30;66.10;;;;;;4969517;28;20046;-81
2024/03/12 04:22:37;;;;;;;1.17;1.08;;;17.30;66.40;;;;;;4981447;28;20050;-81
2024/03/12 04:25:05;;;;;;;0.70;0.70;;;17.30;66.20;;;;;;4985696;28;20042;-82
2024/03/12 04:27:30;;;;;;;0.90;0.90;;;17.30;66.30;;;;;;4993362;28;20030;-80
2024/03/12 04:29:56;;;;;;;0.98;0.98;;;17.30;66.20;;;;;;5003313;28;20121;-81
2024/03/12 04:32:21;;;;;;;0.80;0.80;;;17.30;66.20;;;;;;4985847;28;20051;-80
2024/03/12 04:34:47;;;;;;;0.85;0.85;;;17.30;66.30;;;;;;4983080;28;20157;-81
2024/03/12 04:37:13;;;;;;;1.10;1.10;;;17.30;66.20;;;;;;4988076;28;20412;-81
2024/03/12 04:39:39;;;;;;;0.80;0.80;;;17.30;66.20;;;;;;5001149;28;20053;-81
2024/03/12 04:42:05;;;;;;;0.80;0.73;;;17.30;66.30;;;;;;4967720;28;20061;-81
2024/03/12 04:44:34;;;;;;;0.80;0.77;;;17.30;66.40;;;;;;4968052;28;20050;-79
2024/03/12 04:47:00;;;;;;;1.08;0.90;;;17.30;66.30;;;;;;4986810;28;20060;-81
2024/03/12 04:49:28;;;;;;;0.82;0.82;;;17.30;66.30;;;;;;4984982;28;20030;-81
2024/03/12 04:51:55;;;;;;;0.82;0.82;;;17.20;66.20;;;;;;4985988;28;20049;-82
2024/03/12 04:54:20;;;;;;;0.70;0.70;;;17.30;66.40;;;;;;4983496;28;20690;-82
2024/03/12 04:56:46;;;;;;;0.88;0.88;;;17.20;66.40;;;;;;4986462;28;20125;-79
2024/03/12 04:59:15;;;;;;;0.88;0.85;;;17.20;66.40;;;;;;4984731;28;20066;-80
2024/03/12 05:01:44;;;;;;;0.80;0.80;;;17.20;66.30;;;;;;4982481;28;20088;-81
2024/03/12 05:04:11;;;;;;;0.60;0.60;;;17.20;66.30;;;;;;4985359;28;20058;-80
2024/03/12 05:06:36;;;;;;;0.65;0.65;;;17.20;66.30;;;;;;4982982;28;20035;-81
2024/03/12 05:09:03;;;;;;;0.70;0.70;;;17.20;66.30;;;;;;4988467;28;20057;-81
2024/03/12 05:11:28;;;;;;;0.90;0.68;;;17.20;66.50;;;;;;4989702;28;20036;-81
2024/03/12 05:13:54;;;;;;;0.80;0.80;;;17.30;66.40;;;;;;4985375;28;20043;-81
2024/03/12 05:16:25;;;;;;;0.88;0.88;;;17.20;66.50;;;;;;4969801;28;20738;-81
2024/03/12 05:18:50;;;;;;;0.70;0.70;;;17.20;66.40;;;;;;4984295;28;20104;-81
2024/03/12 05:21:16;;;;;;;0.60;0.60;;;17.20;66.40;;;;;;4985074;28;20046;-81
2024/03/12 05:23:41;;;;;;;0.65;0.65;;;17.20;66.50;;;;;;4952563;28;20054;-81
2024/03/12 05:26:08;;;;;;;0.80;0.80;;;17.20;66.40;;;;;;4981806;28;20046;-81
2024/03/12 05:28:35;;;;;;;0.68;0.57;;;17.20;66.60;;;;;;4986731;28;20511;-80
2024/03/12 05:31:01;;;;;;;0.82;0.82;;;17.20;66.60;;;;;;4985561;28;20145;-83
2024/03/12 05:33:38;;;;;;;0.90;0.90;;;17.20;66.70;;;;;;4986267;28;20200;-80
2024/03/12 05:36:09;;;;;;;0.88;0.80;;;17.20;66.70;;;;;;4986899;28;20096;-83
2024/03/12 05:38:44;;;;;;;0.90;0.90;;;17.20;66.80;;;;;;4985142;28;20129;-81
2024/03/12 05:49:08;;;;;;;0.63;0.63;;;17.20;66.70;;;;;;4983584;28;20145;-81
2024/03/12 05:51:36;;;;;;;0.70;0.70;;;17.20;66.70;;;;;;4985812;28;20129;-83
2024/03/12 05:54:01;;;;;;;0.70;0.70;;;17.20;66.90;;;;;;4983574;28;20108;-82
2024/03/12 05:56:29;;;;;;;0.60;0.60;;;17.20;66.70;;;;;;4969263;28;20039;-82
2024/03/12 05:58:54;;;;;;;0.60;0.60;;;17.20;67.00;;;;;;4999557;28;20038;-82
2024/03/12 06:01:20;;;;;;;1.90;0.82;;;17.20;66.80;;;;;;4968833;28;20046;-82
2024/03/12 06:03:46;;;;;;;0.68;0.68;;;17.20;66.80;;;;;;4968299;28;20634;-82
2024/03/12 06:06:12;;;;;;;0.70;0.70;;;17.20;66.80;;;;;;4981365;28;20042;-81
2024/03/12 06:08:38;;;;;;;0.75;0.75;;;17.20;67.10;;;;;;4987004;28;20114;-81
2024/03/12 06:11:04;;;;;;;0.80;0.80;;;17.20;66.80;;;;;;4984801;28;20157;-81
2024/03/12 06:13:30;;;;;;;0.60;0.60;;;17.20;66.80;;;;;;4983789;28;20039;-82
2024/03/12 06:15:57;;;;;;;0.65;0.65;;;17.20;66.90;;;;;;4960452;28;23223;-82
2024/03/12 06:18:23;;;;;;;0.70;0.63;;;17.20;67.00;;;;;;4985858;28;20108;-84
2024/03/12 06:20:49;;;;;;;0.50;0.50;;;17.20;67.00;;;;;;4988491;28;20507;-82
2024/03/12 06:23:15;;;;;;;0.70;0.70;;;17.20;67.00;;;;;;4989760;28;20582;-83
2024/03/12 06:25:41;;;;;;;0.65;0.65;;;17.10;66.80;;;;;;4986927;28;20161;-83
2024/03/12 06:28:07;;;;;;;0.82;0.73;;;17.10;66.90;;;;;;4965086;28;20047;-83
2024/03/12 06:30:35;;;;;;;0.52;0.50;;;17.20;67.00;;;;;;4986037;28;20069;-83
2024/03/12 06:33:02;;;;;;;0.70;0.70;;;17.10;67.00;;;;;;5002187;28;20045;-83
2024/03/12 06:35:28;;;;;;;0.80;0.80;;;17.10;66.90;;;;;;4990049;28;20050;-85
2024/03/12 06:37:54;;;;;;;0.73;0.70;;;17.10;67.70;;;;;;4970482;28;20105;-84
2024/03/12 06:40:20;;;;;;;1.30;0.98;;;17.20;67.10;;;;;;4955265;28;20511;-82
2024/03/12 06:42:46;;;;;;;0.60;0.60;;;17.10;66.90;;;;;;4987038;28;20408;-84
2024/03/12 06:45:11;;;;;;;1.20;0.93;;;17.10;67.00;;;;;;4986828;28;20530;-83
2024/03/12 06:47:40;;;;;;;0.77;0.60;;;17.20;67.30;;;;;;4993368;28;20115;-84
2024/03/12 06:50:08;;;;;;;0.90;0.90;;;17.20;67.40;;;;;;4988413;28;20137;-83
2024/03/12 06:52:34;;;;;;;2.55;1.00;;;17.20;67.40;;;;;;5003470;28;20034;-89
2024/03/12 06:55:12;;;;;;;0.75;0.70;;;17.10;67.50;;;;;;4987149;28;20127;-81
2024/03/12 06:57:39;;;;;;;0.90;0.90;;;17.20;67.50;;;;;;4988768;28;20479;-79
2024/03/12 07:00:09;;;;;;;0.80;0.63;;;17.20;67.40;;;;;;4988756;28;20105;-80
2024/03/12 07:02:38;;;;;;;0.57;0.50;;;17.20;67.70;;;;;;4987548;28;20117;-79
2024/03/12 07:05:09;;;;;;;1.20;0.70;;;17.30;68.00;;;;;;4986406;28;20141;-79
2024/03/12 07:07:35;;;;;;;0.70;0.70;;;17.30;68.40;;;;;;4986384;28;20042;-78
2024/03/12 07:10:03;;;;;;;2.35;0.80;;;17.40;69.20;;;;;;4985225;28;20164;-78
2024/03/12 07:12:31;;;;;;;1.95;0.90;;;17.40;69.40;;;;;;4986061;28;20463;-80
2024/03/12 07:14:57;;;;;;;0.80;0.80;;;17.40;70.50;;;;;;4988434;28;20085;-79
2024/03/12 07:17:22;;;;;;;1.35;0.73;;;17.40;70.80;;;;;;4988387;28;20058;-77
2024/03/12 07:19:49;;;;;;;1.33;0.80;;;17.40;70.70;;;;;;4988125;28;20026;-78
2024/03/12 07:22:17;;;;;;;3.38;0.98;;;17.40;70.90;;;;;;4985192;28;20027;-79
2024/03/12 07:24:43;;;;;;;1.13;0.70;;;17.40;71.20;;;;;;4968656;28;20034;-79
2024/03/12 07:27:09;;;;;;;0.98;0.82;;;17.40;71.60;;;;;;4987795;28;20035;-80
2024/03/12 07:29:34;;;;;;;1.48;1.13;;;17.50;71.50;;;;;;4987818;28;20031;-79
2024/03/12 07:32:03;;;;;;;2.38;0.90;;;17.50;71.20;;;;;;5001147;28;20054;-80
2024/03/12 07:34:29;;;;;;;1.42;1.00;;;17.40;71.10;;;;;;4987263;28;20514;-80
2024/03/12 07:36:57;;;;;;;0.80;0.80;;;17.40;71.00;;;;;;4971435;28;20100;-80
2024/03/12 07:39:25;;;;;;;1.02;0.90;;;17.30;70.90;;;;;;4970418;28;20050;-79
2024/03/12 07:41:54;;;;;;;1.42;0.60;;;17.40;70.80;;;;;;4970776;28;20055;-80
2024/03/12 07:44:20;;;;;;;1.27;0.80;;;17.40;71.20;;;;;;4988775;28;20122;-81
2024/03/12 07:46:46;;;;;;;0.75;0.73;;;17.40;72.70;;;;;;4986983;28;20150;-81
2024/03/12 07:49:12;;;;;;;1.08;0.73;;;17.40;72.30;;;;;;4970676;28;20045;-81
2024/03/12 07:51:39;;;;;;;0.90;0.88;;;17.40;72.50;;;;;;4987954;28;20069;-81
2024/03/12 07:54:06;;;;;;;1.00;0.80;;;17.40;71.50;;;;;;4985882;28;20066;-80
2024/03/12 07:56:32;;;;;;;2.42;1.15;;;17.30;71.80;;;;;;4988270;28;20504;-80
2024/03/12 07:58:58;;;;;;;1.00;0.82;;;17.30;71.40;;;;;;4985880;28;20273;-80
2024/03/12 08:01:26;;;;;;;1.95;0.70;;;17.30;71.40;;;;;;4984076;28;20393;-81
2024/03/12 08:03:55;;;;;;;0.88;0.75;;;17.30;71.40;;;;;;4987683;28;20688;-80
2024/03/12 08:06:21;;;;;;;1.60;0.77;;;17.30;71.30;;;;;;4984554;28;20412;-80
2024/03/12 08:08:48;;;;;;;0.80;0.68;;;17.30;71.30;;;;;;4987707;28;20574;-81
2024/03/12 08:11:14;;;;;;;0.70;0.70;;;17.30;71.30;;;;;;4988811;28;20038;-80
2024/03/12 08:13:40;;;;;;;1.73;0.60;;;17.30;71.20;;;;;;4987737;28;20046;-80
2024/03/12 08:16:07;;;;;;;0.93;0.70;;;17.30;71.20;;;;;;4985343;28;20053;-80
2024/03/12 08:18:32;;;;;;;1.48;0.90;;;17.30;71.00;;;;;;5001643;28;20115;-81
2024/03/12 08:20:58;;;;;;;0.77;0.50;;;17.30;71.00;;;;;;4987131;28;20046;-80
2024/03/12 08:23:24;;;;;;;1.58;0.90;;;17.30;70.90;;;;;;4988276;28;20041;-80
2024/03/12 08:25:49;;;;;;;1.38;0.63;;;17.30;70.80;;;;;;4987582;28;20492;-80
2024/03/12 08:28:16;;;;;;;0.90;0.73;;;17.30;70.60;;;;;;4985459;28;20110;-81
2024/03/12 08:30:46;;;;;;;1.02;0.80;;;17.30;70.60;;;;;;4970375;28;20125;-81
2024/03/12 08:33:12;;;;;;;0.57;0.50;;;17.30;70.50;;;;;;4985606;28;20046;-81
2024/03/12 08:35:37;;;;;;;0.98;0.70;;;17.30;70.50;;;;;;4983180;28;20057;-81
2024/03/12 08:38:04;;;;;;;1.08;0.80;;;17.30;71.20;;;;;;4986843;28;20065;-81
2024/03/12 08:40:30;;;;;;;1.63;0.90;;;17.30;70.20;;;;;;5003251;28;20415;-81
2024/03/12 08:42:56;;;;;;;0.60;0.60;;;17.30;70.20;;;;;;4984944;28;20507;-80
2024/03/12 08:45:22;;;;;;;0.77;0.70;;;17.30;70.10;;;;;;4986926;28;20045;-81
2024/03/12 08:47:47;;;;;;;0.82;0.70;;;17.30;70.20;;;;;;4988294;28;20035;-80
2024/03/12 08:50:14;;;;;;;0.90;0.73;;;17.30;70.10;;;;;;4985900;28;20095;-80
2024/03/12 08:52:39;;;;;;;1.35;0.70;;;17.30;70.10;;;;;;4983949;28;20455;-80
2024/03/12 08:55:06;;;;;;;1.67;0.70;;;17.30;70.10;;;;;;4986490;28;20061;-81
2024/03/12 08:57:31;;;;;;;0.40;0.40;;;17.30;70.00;;;;;;4985185;28;20042;-80
2024/03/12 08:59:58;;;;;;;0.68;0.50;;;17.30;69.90;;;;;;4986816;28;20454;-80
2024/03/12 09:02:24;;;;;;;1.08;0.60;;;17.30;69.90;;;;;;4981428;28;20041;-81
2024/03/12 09:04:49;;;;;;;1.90;0.63;;;17.30;69.90;;;;;;4986168;28;20054;-80
2024/03/12 09:07:16;;;;;;;0.70;0.70;;;17.30;69.90;;;;;;4984919;28;20050;-81
2024/03/12 09:09:42;;;;;;;0.68;0.65;;;17.30;69.80;;;;;;4986704;28;20053;-81
2024/03/12 09:12:08;;;;;;;0.70;0.70;;;17.30;69.80;;;;;;4984495;28;20057;-80
2024/03/12 09:14:34;;;;;;;0.80;0.80;;;17.30;69.80;;;;;;4984994;28;20061;-81
2024/03/12 09:16:59;;;;;;;0.93;0.40;;;17.30;69.80;;;;;;4986776;28;20065;-80
2024/03/12 09:19:25;;;;;;;1.48;0.63;;;17.30;69.70;;;;;;4985999;28;20042;-81
2024/03/12 09:21:51;;;;;;;0.75;0.50;;;17.30;69.70;;;;;;4986703;28;20116;-81
2024/03/12 09:24:18;;;;;;;0.73;0.50;;;17.30;69.60;;;;;;4985471;28;20038;-81
2024/03/12 09:26:44;;;;;;;0.77;0.65;;;17.30;69.70;;;;;;4987674;28;20078;-81
2024/03/12 09:29:12;;;;;;;0.57;0.57;;;17.30;69.50;;;;;;4985714;28;20500;-81
2024/03/12 09:31:39;;;;;;;0.88;0.60;;;17.30;69.50;;;;;;4985210;28;20050;-81
2024/03/12 09:34:04;;;;;;;0.85;0.70;;;17.30;69.60;;;;;;4984284;28;20042;-81
2024/03/12 09:36:31;;;;;;;1.25;0.57;;;17.30;69.50;;;;;;4986231;28;20100;-81
2024/03/12 09:38:56;;;;;;;0.73;0.60;;;17.40;69.50;;;;;;4984680;28;20030;-81
2024/03/12 09:41:23;;;;;;;0.68;0.50;;;17.30;69.40;;;;;;4985628;28;20049;-81
2024/03/12 09:43:51;;;;;;;0.50;0.50;;;17.40;69.60;;;;;;4966730;28;20096;-80
2024/03/12 09:46:16;;;;;;;0.93;0.60;;;17.40;69.40;;;;;;4984984;28;20054;-81
2024/03/12 09:48:43;;;;;;;0.68;0.65;;;17.40;69.50;;;;;;4968869;28;20050;-81
2024/03/12 09:51:09;;;;;;;1.48;0.50;;;17.40;69.50;;;;;;4968095;28;20066;-81
2024/03/12 09:53:36;;;;;;;0.50;0.47;;;17.40;69.40;;;;;;4987560;28;20133;-81
2024/03/12 09:56:05;;;;;;;0.85;0.50;;;17.40;69.60;;;;;;4990267;28;20046;-81
2024/03/12 09:58:33;;;;;;;1.15;0.80;;;17.40;69.50;;;;;;4988291;28;20042;-81
2024/03/12 10:01:01;;;;;;;0.40;0.40;;;17.40;69.50;;;;;;4987695;28;20045;-81
2024/03/12 10:03:26;;;;;;;0.95;0.50;;;17.40;69.60;;;;;;4990296;28;20046;-81
2024/03/12 10:05:53;;;;;;;0.70;0.50;;;17.40;69.50;;;;;;4988938;28;20034;-81
2024/03/12 10:08:21;;;;;;;0.40;0.40;;;17.40;69.40;;;;;;4989657;28;20042;-81
2024/03/12 10:10:47;;;;;;;0.55;0.55;;;17.40;69.40;;;;;;4985845;28;20065;-81
2024/03/12 10:13:15;;;;;;;0.50;0.50;;;17.40;69.50;;;;;;4989629;28;20101;-81
2024/03/12 10:15:54;;;;;;;0.60;0.50;;;17.40;69.30;;;;;;5004014;28;20054;-81
2024/03/12 10:18:20;;;;;;;0.65;0.65;;;17.40;69.30;;;;;;4987592;28;20050;-81
2024/03/12 10:20:48;;;;;;;1.17;0.40;;;17.40;69.40;;;;;;4991394;28;20193;-81
2024/03/12 10:23:15;;;;;;;0.75;0.40;;;17.40;69.30;;;;;;4989869;28;20058;-81
2024/03/12 10:25:42;;;;;;;0.80;0.50;;;17.40;69.30;;;;;;4988595;28;20142;-81
2024/03/12 10:28:07;;;;;;;0.65;0.40;;;17.40;69.20;;;;;;4988328;28;20038;-81
2024/03/12 10:30:34;;;;;;;2.25;0.63;;;17.40;69.20;;;;;;4989681;28;20519;-81
2024/03/12 10:33:13;;;;;;;1.63;0.50;;;17.40;69.20;;;;;;4988811;28;20045;-81
2024/03/12 10:35:41;;;;;;;0.45;0.40;;;17.40;69.10;;;;;;4989394;28;20050;-81
2024/03/12 10:38:07;;;;;;;0.75;0.43;;;17.50;69.10;;;;;;4988578;28;20046;-81
2024/03/12 10:40:32;;;;;;;1.58;0.77;;;17.50;69.00;;;;;;4988693;28;20133;-81
2024/03/12 10:43:00;;;;;;;0.57;0.50;;;17.50;69.00;;;;;;4988499;28;20118;-81
2024/03/12 10:45:27;;;;;;;0.60;0.52;;;17.50;69.00;;;;;;4987195;28;20039;-81
2024/03/12 10:47:53;;;;;;;1.30;0.52;;;17.50;68.90;;;;;;5005051;28;20034;-80
2024/03/12 10:50:19;;;;;;;0.70;0.60;;;17.60;69.00;;;;;;4987733;28;20046;-81
2024/03/12 10:52:45;;;;;;;0.90;0.60;;;17.50;68.80;;;;;;4969881;28;20428;-81
2024/03/12 10:55:21;;;;;;;0.40;0.35;;;17.60;68.90;;;;;;5003119;28;20038;-81
2024/03/12 10:57:55;;;;;;;0.63;0.50;;;17.60;68.80;;;;;;4987405;28;20073;-81
2024/03/12 11:00:25;;;;;;;0.32;0.30;;;17.60;68.70;;;;;;4986902;28;20129;-81
2024/03/12 11:02:51;;;;;;;0.35;0.30;;;17.60;68.70;;;;;;4988090;28;20485;-81
2024/03/12 11:05:18;;;;;;;0.63;0.40;;;17.60;68.70;;;;;;4988262;28;20512;-80
2024/03/12 11:07:44;;;;;;;0.63;0.45;;;17.70;68.80;;;;;;4989300;28;20035;-81
2024/03/12 11:10:10;;;;;;;1.60;0.40;;;17.70;68.70;;;;;;4985971;28;20046;-80
2024/03/12 11:12:36;;;;;;;0.35;0.32;;;17.70;68.60;;;;;;4988442;28;20480;-81
2024/03/12 11:15:02;;;;;;;0.98;0.40;;;17.70;68.60;;;;;;4987674;28;20121;-81
2024/03/12 11:17:28;;;;;;;0.32;0.32;;;17.70;68.70;;;;;;4988698;28;20579;-81
2024/03/12 11:19:56;;;;;;;0.68;0.45;;;17.70;68.50;;;;;;4983733;28;20100;-81
2024/03/12 11:22:22;;;;;;;0.50;0.50;;;17.70;68.50;;;;;;4985940;28;20407;-81
2024/03/12 11:24:51;;;;;;;0.65;0.50;;;17.70;68.50;;;;;;4987807;28;20022;-81
2024/03/12 11:27:20;;;;;;;0.63;0.47;;;17.70;68.50;;;;;;4987626;28;20046;-81
2024/03/12 11:30:04;;;;;;;0.30;0.30;;;17.70;68.50;;;;;;4989710;28;20766;-81
2024/03/12 11:32:39;;;;;;;1.50;0.50;;;17.70;68.50;;;;;;4989003;28;20598;-81
2024/03/12 11:35:26;;;;;;;0.40;0.32;;;17.70;68.50;;;;;;4987164;28;20818;-81
2024/03/12 11:38:00;;;;;;;0.40;0.40;;;17.70;68.50;;;;;;4987739;28;20109;-81
2024/03/12 11:40:31;;;;;;;0.47;0.43;;;17.70;68.50;;;;;;4986675;28;20042;-81
2024/03/12 11:42:57;;;;;;;0.47;0.47;;;17.70;68.50;;;;;;4987395;28;20066;-80
2024/03/12 11:45:40;;;;;;;0.43;0.35;;;17.70;68.40;;;;;;5003148;28;20097;-81
2024/03/12 11:48:10;;;;;;;0.25;0.20;;;17.70;68.40;;;;;;4987876;28;20093;-81
2024/03/12 11:50:39;;;;;;;0.55;0.50;;;17.70;68.40;;;;;;5002240;28;20065;-81
2024/03/12 11:53:18;;;;;;;0.30;0.30;;;17.70;68.40;;;;;;4985997;28;20057;-81
2024/03/12 11:56:06;;;;;;;0.40;0.30;;;17.70;68.80;;;;;;4987895;28;20054;-81
2024/03/12 11:58:40;;;;;;;0.40;0.32;;;17.70;68.40;;;;;;4985231;28;20088;-81
2024/03/12 12:01:10;;;;;;;0.40;0.30;;;17.70;68.40;;;;;;4983965;28;20054;-81
2024/03/12 12:03:37;;;;;;;0.43;0.30;;;17.70;68.40;;;;;;5002299;28;20026;-81
2024/03/12 12:06:03;;;;;;;0.50;0.50;;;17.70;68.30;;;;;;4987040;28;20069;-81
2024/03/12 12:08:30;;;;;;;0.30;0.30;;;17.70;68.30;;;;;;4988145;28;20070;-81
2024/03/12 12:11:00;;;;;;;0.57;0.52;;;17.70;68.20;;;;;;4987765;28;20051;-81
2024/03/12 12:13:26;;;;;;;0.35;0.25;;;17.70;68.20;;;;;;4986457;28;20137;-81
2024/03/12 12:16:14;;;;;;;0.57;0.28;;;17.70;68.20;;;;;;4987383;28;20129;-82
2024/03/12 12:18:40;;;;;;;0.30;0.30;;;17.70;68.20;;;;;;4984345;28;20113;-81
2024/03/12 12:21:16;;;;;;;1.52;0.30;;;17.70;68.20;;;;;;4987367;28;20141;-81
2024/03/12 12:23:46;;;;;;;0.45;0.40;;;17.70;68.10;;;;;;4987629;28;20073;-81
2024/03/12 12:26:20;;;;;;;0.40;0.40;;;17.70;68.20;;;;;;4986472;28;20122;-81
2024/03/12 12:28:46;;;;;;;0.68;0.38;;;17.70;68.20;;;;;;4987052;28;20112;-81
2024/03/12 12:31:12;;;;;;;0.70;0.28;;;17.70;68.20;;;;;;4986737;28;20042;-81
2024/03/12 12:33:39;;;;;;;0.68;0.45;;;17.70;68.20;;;;;;4986108;28;20534;-82
2024/03/12 12:36:08;;;;;;;0.52;0.30;;;17.70;68.20;;;;;;4619837;28;10000450;-81
2024/03/12 12:38:34;;;;;;;0.40;0.35;;;17.70;68.30;;;;;;4979114;28;20053;-82
2024/03/12 12:41:00;;;;;;;0.75;0.55;;;17.70;68.10;;;;;;4980220;28;20042;-82
2024/03/12 12:43:26;;;;;;;0.50;0.40;;;17.70;68.10;;;;;;4997842;28;20112;-83
2024/03/12 12:45:55;;;;;;;0.40;0.30;;;17.80;68.20;;;;;;4982087;28;20061;-83
2024/03/12 12:48:22;;;;;;;0.57;0.40;;;17.80;68.20;;;;;;4981110;28;20159;-81
2024/03/12 12:50:57;;;;;;;0.60;0.47;;;17.80;68.20;;;;;;4988213;28;20046;-81
2024/03/12 12:53:23;;;;;;;0.30;0.30;;;17.80;68.20;;;;;;4968706;28;20113;-81